createdAt,value
2023-04-15T00:01:02.619Z,15.48
2023-04-15T00:03:30.228Z,16.30
2023-04-15T00:05:58.584Z,18.17
2023-04-15T00:08:25.707Z,16.23
2023-04-15T00:10:52.797Z,13.77
2023-04-15T00:13:20.281Z,15.18
2023-04-15T00:15:48.033Z,15.95
2023-04-15T00:18:15.144Z,16.75
2023-04-15T00:20:42.366Z,13.85
2023-04-15T00:23:09.579Z,8.88
2023-04-15T00:25:36.698Z,8.95
2023-04-15T00:28:04.051Z,7.55
2023-04-15T00:30:31.745Z,7.85
2023-04-15T00:32:58.939Z,7.20
2023-04-15T00:35:26.529Z,10.98
2023-04-15T00:37:53.926Z,12.43
2023-04-15T00:40:24.648Z,13.00
2023-04-15T00:42:52.349Z,12.85
2023-04-15T00:45:19.799Z,15.70
2023-04-15T00:47:46.896Z,13.05
2023-04-15T00:50:14.145Z,13.82
2023-04-15T00:52:41.917Z,14.90
2023-04-15T00:55:09.235Z,14.85
2023-04-15T00:57:36.750Z,14.05
2023-04-15T01:00:05.726Z,12.57
2023-04-15T01:02:33.544Z,15.15
2023-04-15T01:05:00.951Z,12.80
2023-04-15T01:07:28.080Z,13.60
2023-04-15T01:09:55.625Z,15.65
2023-04-15T01:12:22.752Z,14.43
2023-04-15T01:14:50.032Z,12.32
2023-04-15T01:17:17.717Z,13.27
2023-04-15T01:19:44.865Z,14.15
2023-04-15T01:22:12.051Z,10.95
2023-04-15T01:24:39.909Z,13.30
2023-04-15T01:27:07.001Z,13.80
2023-04-15T01:29:37.537Z,12.25
2023-04-15T01:32:04.713Z,14.60
2023-04-15T01:34:33.027Z,11.98
2023-04-15T01:37:02.258Z,14.10
2023-04-15T01:39:29.421Z,13.15
2023-04-15T01:41:57.346Z,13.15
2023-04-15T01:44:24.471Z,13.50
2023-04-15T01:46:51.624Z,14.95
2023-04-15T01:49:18.998Z,14.88
2023-04-15T01:51:46.218Z,14.40
2023-04-15T01:54:13.286Z,15.48
2023-04-15T01:56:40.360Z,12.95
2023-04-15T01:59:07.581Z,13.02
2023-04-15T02:01:34.732Z,15.25
2023-04-15T02:04:01.845Z,14.57
2023-04-15T02:06:29.077Z,14.23
2023-04-15T02:08:56.180Z,15.68
2023-04-15T02:11:23.307Z,12.25
2023-04-15T02:13:50.408Z,10.95
2023-04-15T02:16:18.105Z,12.68
2023-04-15T02:18:45.898Z,14.30
2023-04-15T02:21:13.179Z,11.45
2023-04-15T02:23:40.471Z,12.75
2023-04-15T02:26:08.174Z,11.95
2023-04-15T02:28:35.872Z,11.73
2023-04-15T02:31:06.492Z,12.70
2023-04-15T02:33:33.657Z,13.60
2023-04-15T02:36:01.093Z,13.80
2023-04-15T02:38:28.208Z,12.75
2023-04-15T02:40:55.488Z,13.73
2023-04-15T02:43:22.637Z,13.18
2023-04-15T02:45:49.857Z,14.10
2023-04-15T02:48:19.404Z,16.10
2023-04-15T02:50:47.922Z,14.13
2023-04-15T02:53:15.445Z,14.30
2023-04-15T02:55:42.975Z,13.70
2023-04-15T02:58:10.265Z,14.75
2023-04-15T03:00:37.421Z,15.88
2023-04-15T03:03:05.663Z,14.88
2023-04-15T03:05:33.107Z,13.52
2023-04-15T03:08:01.232Z,14.73
2023-04-15T03:10:28.595Z,12.68
2023-04-15T03:12:55.974Z,13.93
2023-04-15T03:15:23.171Z,13.30
2023-04-15T03:17:50.660Z,14.73
2023-04-15T03:20:17.981Z,13.68
2023-04-15T03:22:45.066Z,13.88
2023-04-15T03:25:12.134Z,14.68
2023-04-15T03:27:39.492Z,20.60
2023-04-15T03:30:07.702Z,17.10
2023-04-15T03:32:34.978Z,18.92
2023-04-15T03:35:02.262Z,20.15
2023-04-15T03:37:29.391Z,20.50
2023-04-15T03:39:56.518Z,21.63
2023-04-15T03:42:23.899Z,19.48
2023-04-15T03:44:51.355Z,19.88
2023-04-15T03:47:18.432Z,22.15
2023-04-15T03:49:45.724Z,21.25
2023-04-15T03:52:12.799Z,22.30
2023-04-15T03:54:39.990Z,21.42
2023-04-15T03:57:07.133Z,23.00
2023-04-15T03:59:34.211Z,22.40
2023-04-15T04:02:01.370Z,25.15
2023-04-15T04:04:28.700Z,24.63
2023-04-15T04:06:55.990Z,29.10
2023-04-15T04:09:23.059Z,22.50
2023-04-15T04:11:50.268Z,24.75
2023-04-15T04:14:17.372Z,24.75
2023-04-15T04:16:45.249Z,22.92
2023-04-15T04:19:12.471Z,19.52
2023-04-15T04:21:39.664Z,21.35
2023-04-15T04:24:07.152Z,25.42
2023-04-15T04:26:34.271Z,21.88
2023-04-15T04:29:01.615Z,20.05
2023-04-15T04:31:28.973Z,24.63
2023-04-15T04:33:56.175Z,24.35
2023-04-15T04:36:23.373Z,23.92
2023-04-15T04:38:50.494Z,19.35
2023-04-15T04:41:17.659Z,21.48
2023-04-15T04:43:44.779Z,20.98
2023-04-15T04:46:12.837Z,20.13
2023-04-15T04:48:40.079Z,17.98
2023-04-15T04:51:08.150Z,18.05
2023-04-15T04:53:35.808Z,19.20
2023-04-15T04:56:02.986Z,16.98
2023-04-15T04:58:30.112Z,17.17
2023-04-15T05:00:57.322Z,15.00
2023-04-15T05:03:24.658Z,16.70
2023-04-15T05:05:51.848Z,17.98
2023-04-15T05:08:18.941Z,19.20
2023-04-15T05:10:46.163Z,16.95
2023-04-15T05:13:13.271Z,19.88
2023-04-15T05:15:41.397Z,20.45
2023-04-15T05:18:08.531Z,27.35
2023-04-15T05:20:35.732Z,20.50
2023-04-15T05:23:02.851Z,19.77
2023-04-15T05:25:30.064Z,23.13
2023-04-15T05:27:57.136Z,19.42
2023-04-15T05:30:24.203Z,21.35
2023-04-15T05:32:51.378Z,27.75
2023-04-15T05:35:19.071Z,21.88
2023-04-15T05:37:46.642Z,25.75
2023-04-15T05:40:14.360Z,22.23
2023-04-15T05:42:41.479Z,17.33
2023-04-15T05:45:09.259Z,22.25
2023-04-15T05:47:37.532Z,21.35
2023-04-15T05:50:04.997Z,24.65
2023-04-15T05:52:32.429Z,27.70
2023-04-15T05:54:59.587Z,25.90
2023-04-15T05:57:26.681Z,22.17
2023-04-15T05:59:54.007Z,26.98
2023-04-15T06:02:21.221Z,23.80
2023-04-15T06:04:48.567Z,23.65
2023-04-15T06:07:15.746Z,20.20
2023-04-15T06:09:42.838Z,21.00
2023-04-15T06:12:12.365Z,17.67
2023-04-15T06:14:40.581Z,20.23
2023-04-15T06:17:08.572Z,18.52
2023-04-15T06:19:39.075Z,20.02
2023-04-15T06:22:07.282Z,20.23
2023-04-15T06:24:34.597Z,24.45
2023-04-15T06:27:02.352Z,20.60
2023-04-15T06:29:29.713Z,18.00
2023-04-15T06:31:57.037Z,17.38
2023-04-15T06:34:24.117Z,17.65
2023-04-15T06:36:51.276Z,17.35
2023-04-15T06:39:18.483Z,14.57
2023-04-15T06:41:45.576Z,15.45
2023-04-15T06:44:12.685Z,16.77
2023-04-15T06:46:40.022Z,13.50
2023-04-15T06:49:07.091Z,13.07
2023-04-15T06:51:36.052Z,12.48
2023-04-15T06:54:05.885Z,11.10
2023-04-15T06:56:33.350Z,11.88
2023-04-15T06:59:00.885Z,12.70
2023-04-15T07:01:28.273Z,10.63
2023-04-15T07:03:55.514Z,12.98
2023-04-15T07:06:22.585Z,10.80
2023-04-15T07:08:49.781Z,15.25
2023-04-15T07:11:17.474Z,13.27
2023-04-15T07:13:44.548Z,11.20
2023-04-15T07:16:11.714Z,11.02
2023-04-15T07:18:38.839Z,11.57
2023-04-15T07:21:05.964Z,12.65
2023-04-15T07:23:33.186Z,11.68
2023-04-15T07:26:00.992Z,10.10
2023-04-15T07:28:28.176Z,12.20
2023-04-15T07:30:57.282Z,14.88
2023-04-15T07:33:24.390Z,15.10
2023-04-15T07:35:51.600Z,15.77
2023-04-15T07:38:18.721Z,13.50
2023-04-15T07:40:46.905Z,14.30
2023-04-15T07:43:14.478Z,12.80
2023-04-15T07:45:41.690Z,12.55
2023-04-15T07:48:08.936Z,15.27
2023-04-15T07:50:36.035Z,13.73
2023-04-15T07:53:03.297Z,11.60
2023-04-15T07:55:30.732Z,9.68
2023-04-15T07:57:57.804Z,10.77
2023-04-15T08:00:24.924Z,8.05
2023-04-15T08:02:53.263Z,9.98
2023-04-15T08:05:20.996Z,9.93
2023-04-15T08:07:48.208Z,12.73
2023-04-15T08:10:15.531Z,11.57
2023-04-15T08:12:42.836Z,12.13
2023-04-15T08:15:10.237Z,12.25
2023-04-15T08:17:37.346Z,14.18
2023-04-15T08:20:05.909Z,12.02
2023-04-15T08:22:33.132Z,10.55
2023-04-15T08:25:00.217Z,9.15
2023-04-15T08:27:27.398Z,13.70
2023-04-15T08:29:54.608Z,10.10
2023-04-15T08:32:22.533Z,9.27
2023-04-15T08:34:49.684Z,10.80
2023-04-15T08:37:17.254Z,10.90
2023-04-15T08:39:45.322Z,7.15
2023-04-15T08:42:13.555Z,10.95
2023-04-15T08:44:40.756Z,14.48
2023-04-15T08:47:09.551Z,10.07
2023-04-15T08:49:39.840Z,10.02
2023-04-15T08:52:07.468Z,13.15
2023-04-15T08:54:34.598Z,12.35
2023-04-15T08:57:02.486Z,10.52
2023-04-15T08:59:31.381Z,11.35
2023-04-15T09:01:59.032Z,10.32
2023-04-15T09:04:26.309Z,11.35
2023-04-15T09:06:53.470Z,12.52
2023-04-15T09:09:20.612Z,11.55
2023-04-15T09:11:49.932Z,13.07
2023-04-15T09:14:17.426Z,11.55
2023-04-15T09:16:57.557Z,11.38
2023-04-15T09:19:26.243Z,10.95
2023-04-15T09:21:57.296Z,14.15
2023-04-15T09:24:27.086Z,10.73
2023-04-15T09:26:58.259Z,12.18
2023-04-15T09:29:26.772Z,10.85
2023-04-15T09:31:53.969Z,9.73
2023-04-15T09:34:21.682Z,12.05
2023-04-15T09:36:51.810Z,9.45
2023-04-15T09:39:18.922Z,11.52
2023-04-15T09:41:46.053Z,13.65
2023-04-15T09:44:25.992Z,15.40
2023-04-15T09:46:53.603Z,11.43
2023-04-15T09:49:20.958Z,9.90
2023-04-15T09:52:01.457Z,9.30
2023-04-15T09:54:36.438Z,10.07
2023-04-15T09:57:13.157Z,8.60
2023-04-15T09:59:40.488Z,8.10
2023-04-15T10:02:07.897Z,8.50
2023-04-15T10:04:37.513Z,9.50
2023-04-15T10:07:06.171Z,9.63
2023-04-15T10:09:34.773Z,10.73
2023-04-15T10:12:02.212Z,8.00
2023-04-15T10:14:33.386Z,9.52
2023-04-15T10:17:03.150Z,10.43
2023-04-15T10:19:31.685Z,7.45
2023-04-15T10:21:59.726Z,8.73
2023-04-15T10:24:27.012Z,7.57
2023-04-15T10:26:55.542Z,10.65
2023-04-15T10:29:22.801Z,10.00
2023-04-15T10:31:50.178Z,8.60
2023-04-15T10:34:17.816Z,11.55
2023-04-15T10:36:47.052Z,9.55
2023-04-15T10:39:33.131Z,9.75
2023-04-15T10:42:26.681Z,10.73
2023-04-15T10:44:57.338Z,8.35
2023-04-15T10:47:25.544Z,7.20
2023-04-15T10:49:53.980Z,9.73
2023-04-15T10:52:25.821Z,10.60
2023-04-15T10:55:03.305Z,9.93
2023-04-15T10:57:35.573Z,10.40
2023-04-15T11:00:05.005Z,10.82
2023-04-15T11:02:45.892Z,13.07
2023-04-15T11:05:13.877Z,8.50
2023-04-15T11:07:41.083Z,13.85
2023-04-15T11:10:14.303Z,9.38
2023-04-15T11:12:42.238Z,9.85
2023-04-15T11:15:27.913Z,8.20
2023-04-15T11:17:54.998Z,10.63
2023-04-15T11:20:22.161Z,9.90
2023-04-15T11:22:51.717Z,11.15
2023-04-15T11:25:25.959Z,11.52
2023-04-15T11:27:54.367Z,9.35
2023-04-15T11:30:25.840Z,12.02
2023-04-15T11:32:54.310Z,11.27
2023-04-15T11:35:22.097Z,12.65
2023-04-15T11:37:50.206Z,9.75
2023-04-15T11:40:18.095Z,9.68
2023-04-15T11:42:49.642Z,7.38
2023-04-15T11:45:16.951Z,12.80
2023-04-15T11:47:44.115Z,10.20
2023-04-15T11:50:21.610Z,12.35
2023-04-15T11:52:58.373Z,13.85
2023-04-15T11:55:26.214Z,11.80
2023-04-15T11:58:12.826Z,10.90
2023-04-15T12:00:41.234Z,11.32
2023-04-15T12:03:15.470Z,10.90
2023-04-15T12:06:02.832Z,10.88
2023-04-15T12:08:49.075Z,10.57
2023-04-15T12:11:29.745Z,11.63
2023-04-15T12:13:58.180Z,9.65
2023-04-15T12:16:26.215Z,9.02
2023-04-15T12:18:55.988Z,10.13
2023-04-15T12:21:23.949Z,12.00
2023-04-15T12:23:51.489Z,8.70
2023-04-15T12:26:19.260Z,12.20
2023-04-15T12:28:46.783Z,7.30
2023-04-15T12:31:15.220Z,13.68
2023-04-15T12:33:42.426Z,11.05
2023-04-15T12:36:09.551Z,9.45
2023-04-15T12:38:36.681Z,10.15
2023-04-15T12:41:03.884Z,10.52
2023-04-15T12:43:31.377Z,9.60
2023-04-15T12:45:58.551Z,10.35
2023-04-15T12:48:25.724Z,15.18
2023-04-15T12:50:52.806Z,13.00
2023-04-15T12:53:19.899Z,14.20
2023-04-15T12:55:47.205Z,12.20
2023-04-15T12:58:14.273Z,11.77
2023-04-15T13:00:41.392Z,9.38
2023-04-15T13:03:08.606Z,9.43
2023-04-15T13:05:37.069Z,10.02
2023-04-15T13:08:04.163Z,11.38
2023-04-15T13:10:31.865Z,12.18
2023-04-15T13:12:59.029Z,7.53
2023-04-15T13:15:26.185Z,11.52
2023-04-15T13:17:53.957Z,10.02
2023-04-15T13:20:21.241Z,10.25
2023-04-15T13:22:48.319Z,8.25
2023-04-15T13:25:15.659Z,12.55
2023-04-15T13:27:42.747Z,11.70
2023-04-15T13:30:10.013Z,12.73
2023-04-15T13:32:37.203Z,9.45
2023-04-15T13:35:05.204Z,9.45
2023-04-15T13:37:32.305Z,9.70
2023-04-15T13:39:59.503Z,8.77
2023-04-15T13:42:27.523Z,9.32
2023-04-15T13:44:54.702Z,10.48
2023-04-15T13:47:22.079Z,10.57
2023-04-15T13:49:50.550Z,9.23
2023-04-15T13:52:17.617Z,10.20
2023-04-15T13:54:44.753Z,9.82
2023-04-15T13:57:11.872Z,11.75
2023-04-15T13:59:38.977Z,11.63
2023-04-15T14:02:06.297Z,15.75
2023-04-15T14:04:33.980Z,11.48
2023-04-15T14:07:02.769Z,10.95
2023-04-15T14:09:31.187Z,10.15
2023-04-15T14:11:59.946Z,12.35
2023-04-15T14:14:27.068Z,12.77
2023-04-15T14:16:54.273Z,13.20
2023-04-15T14:19:22.048Z,15.45
2023-04-15T14:21:50.401Z,12.80
2023-04-15T14:24:17.555Z,12.88
2023-04-15T14:26:44.758Z,9.68
2023-04-15T14:29:11.836Z,9.25
2023-04-15T14:31:39.501Z,9.75
2023-04-15T14:34:08.623Z,11.25
2023-04-15T14:36:36.181Z,10.73
2023-04-15T14:39:04.851Z,10.43
2023-04-15T14:41:32.097Z,10.32
2023-04-15T14:43:59.167Z,11.40
2023-04-15T14:46:26.692Z,9.48
2023-04-15T14:48:54.010Z,10.77
2023-04-15T14:51:21.175Z,11.50
2023-04-15T14:53:48.300Z,11.45
2023-04-15T14:56:15.395Z,14.55
2023-04-15T14:58:42.452Z,9.15
2023-04-15T15:01:09.796Z,11.68
2023-04-15T15:03:37.040Z,11.75
2023-04-15T15:06:04.232Z,10.60
2023-04-15T15:08:31.395Z,11.45
2023-04-15T15:10:58.496Z,8.93
2023-04-15T15:13:25.620Z,11.10
2023-04-15T15:15:52.929Z,9.60
2023-04-15T15:18:20.136Z,9.88
2023-04-15T15:20:47.735Z,9.38
2023-04-15T15:23:14.912Z,10.90
2023-04-15T15:25:42.012Z,14.43
2023-04-15T15:28:09.118Z,8.98
2023-04-15T15:30:36.302Z,12.38
2023-04-15T15:33:03.489Z,12.52
2023-04-15T15:35:30.726Z,12.95
2023-04-15T15:37:57.991Z,11.70
2023-04-15T15:40:25.080Z,13.40
2023-04-15T15:42:52.258Z,12.48
2023-04-15T15:45:19.440Z,13.80
2023-04-15T15:47:46.618Z,12.10
2023-04-15T15:50:14.514Z,12.02
2023-04-15T15:52:41.705Z,12.30
2023-04-15T15:55:09.106Z,11.68
2023-04-15T15:57:36.670Z,13.52
2023-04-15T16:00:11.834Z,12.85
2023-04-15T16:05:10.174Z,15.73
2023-04-15T16:07:37.319Z,14.93
2023-04-15T16:10:04.549Z,13.07
2023-04-15T16:12:33.278Z,12.05
2023-04-15T16:15:01.910Z,17.65
2023-04-15T16:17:29.037Z,17.85
2023-04-15T16:20:00.878Z,17.35
2023-04-15T16:22:28.502Z,17.80
2023-04-15T16:24:55.677Z,16.90
2023-04-15T16:27:22.808Z,16.23
2023-04-15T16:29:49.878Z,17.48
2023-04-15T16:32:17.189Z,18.63
2023-04-15T16:34:44.454Z,19.30
2023-04-15T16:37:11.536Z,16.85
2023-04-15T16:39:38.893Z,16.45
2023-04-15T16:42:06.941Z,16.20
2023-04-15T16:44:34.068Z,15.38
2023-04-15T16:47:02.981Z,17.52
2023-04-15T16:49:30.359Z,16.17
2023-04-15T16:51:58.020Z,16.48
2023-04-15T16:54:25.202Z,16.83
2023-04-15T16:56:52.364Z,18.88
2023-04-15T16:59:19.426Z,17.80
2023-04-15T17:01:46.825Z,17.83
2023-04-15T17:04:14.206Z,19.70
2023-04-15T17:06:41.516Z,13.43
2023-04-15T17:09:08.604Z,16.35
2023-04-15T17:11:38.090Z,16.58
2023-04-15T17:14:05.804Z,14.55
2023-04-15T17:16:32.947Z,15.43
2023-04-15T17:19:00.066Z,13.85
2023-04-15T17:21:27.426Z,14.57
2023-04-15T17:23:54.617Z,14.63
2023-04-15T17:26:22.181Z,15.82
2023-04-15T17:28:49.243Z,16.50
2023-04-15T17:31:16.353Z,16.85
2023-04-15T17:34:00.856Z,16.88
2023-04-15T17:36:32.165Z,19.08
2023-04-15T17:38:59.261Z,17.73
2023-04-15T17:41:26.459Z,17.35
2023-04-15T17:43:53.516Z,18.58
2023-04-15T17:46:20.696Z,17.20
2023-04-15T17:48:47.977Z,19.73
2023-04-15T17:51:15.186Z,22.70
2023-04-15T17:53:42.363Z,24.08
2023-04-15T17:56:09.457Z,24.73
2023-04-15T17:58:36.582Z,26.77
2023-04-15T18:01:03.778Z,22.98
2023-04-15T18:03:30.984Z,26.15
2023-04-15T18:05:58.160Z,21.27
2023-04-15T18:08:25.484Z,21.92
2023-04-15T18:10:52.571Z,21.10
2023-04-15T18:13:19.647Z,21.92
2023-04-15T18:15:48.664Z,24.75
2023-04-15T18:18:15.889Z,23.27
2023-04-15T18:20:42.961Z,23.83
2023-04-15T18:23:10.730Z,21.08
2023-04-15T18:25:38.402Z,21.35
2023-04-15T18:28:06.051Z,21.02
2023-04-15T18:30:33.296Z,19.10
2023-04-15T18:33:01.037Z,21.63
2023-04-15T18:35:31.615Z,23.15
2023-04-15T18:37:59.073Z,29.88
2023-04-15T18:40:26.308Z,39.88
2023-04-15T18:42:53.600Z,34.33
2023-04-15T18:45:21.171Z,38.63
2023-04-15T18:47:48.746Z,36.40
2023-04-15T18:50:16.090Z,30.85
2023-04-15T18:52:43.327Z,25.42
2023-04-15T18:55:10.550Z,34.20
2023-04-15T18:57:42.561Z,34.97
2023-04-15T19:00:12.534Z,28.95
2023-04-15T19:02:40.409Z,26.20
2023-04-15T19:05:07.694Z,29.08
2023-04-15T19:07:35.463Z,21.98
2023-04-15T19:10:03.496Z,25.05
2023-04-15T19:12:30.704Z,27.15
2023-04-15T19:14:57.904Z,26.55
2023-04-15T19:17:25.117Z,27.27
2023-04-15T19:19:52.197Z,22.80
2023-04-15T19:22:19.385Z,26.30
2023-04-15T19:24:46.769Z,24.13
2023-04-15T19:27:13.917Z,18.10
2023-04-15T19:29:41.244Z,23.02
2023-04-15T19:32:08.473Z,23.90
2023-04-15T19:34:35.826Z,25.45
2023-04-15T19:37:02.953Z,21.75
2023-04-15T19:39:30.109Z,22.42
2023-04-15T19:41:58.855Z,22.48
2023-04-15T19:44:26.020Z,22.25
2023-04-15T19:46:53.593Z,21.27
2023-04-15T19:49:20.793Z,25.83
2023-04-15T19:51:50.992Z,25.20
2023-04-15T19:54:18.211Z,29.35
2023-04-15T19:56:45.361Z,31.63
2023-04-15T19:59:12.917Z,29.88
2023-04-15T20:01:40.154Z,32.40
2023-04-15T20:04:07.840Z,32.10
2023-04-15T20:06:35.114Z,34.88
2023-04-15T20:09:02.282Z,36.53
2023-04-15T20:12:47.008Z,34.10
2023-04-15T20:14:17.814Z,34.15
2023-04-15T20:16:45.028Z,35.85
2023-04-15T20:19:13.277Z,35.10
2023-04-15T20:21:40.413Z,36.80
2023-04-15T20:24:07.718Z,36.92
2023-04-15T20:26:34.856Z,31.48
2023-04-15T20:29:02.193Z,35.58
2023-04-15T20:31:29.381Z,30.20
2023-04-15T20:33:56.518Z,30.50
2023-04-15T20:36:23.684Z,29.83
2023-04-15T20:38:50.760Z,32.80
2023-04-15T20:41:17.820Z,29.42
2023-04-15T20:43:44.988Z,27.38
2023-04-15T20:46:20.636Z,31.00
2023-04-15T20:48:48.582Z,26.10
2023-04-15T20:51:15.684Z,28.20
2023-04-15T20:53:42.798Z,25.83
2023-04-15T20:56:10.038Z,27.90
2023-04-15T20:58:38.572Z,28.60
2023-04-15T21:01:05.743Z,29.00
2023-04-15T21:03:33.100Z,27.25
2023-04-15T21:06:00.426Z,25.42
2023-04-15T21:08:29.736Z,30.13
2023-04-15T21:10:57.363Z,33.40
2023-04-15T21:13:24.967Z,36.20
2023-04-15T21:15:54.152Z,43.80
2023-04-15T21:18:21.871Z,40.97
2023-04-15T21:21:01.823Z,38.38
2023-04-15T21:23:29.906Z,42.03
2023-04-15T21:25:57.454Z,40.78
2023-04-15T21:28:24.610Z,41.72
2023-04-15T21:30:51.789Z,37.35
2023-04-15T21:33:20.323Z,45.53
2023-04-15T21:35:47.477Z,35.10
2023-04-15T21:38:14.661Z,43.45
2023-04-15T21:40:41.755Z,43.22
2023-04-15T21:43:08.896Z,44.15
2023-04-15T21:45:38.624Z,39.17
2023-04-15T21:48:08.061Z,39.75
2023-04-15T21:50:38.665Z,37.90
2023-04-15T21:53:08.017Z,37.70
2023-04-15T21:55:35.203Z,38.97
2023-04-15T21:58:02.301Z,37.03
2023-04-15T22:00:29.404Z,35.90
2023-04-15T22:02:56.694Z,34.20
2023-04-15T22:05:23.881Z,37.60
2023-04-15T22:07:51.081Z,37.17
2023-04-15T22:10:19.442Z,36.53
2023-04-15T22:12:46.545Z,38.47
2023-04-15T22:15:13.678Z,35.70
2023-04-15T22:17:41.050Z,44.03
2023-04-15T22:20:08.527Z,41.92
2023-04-15T22:22:43.259Z,41.13
2023-04-15T22:25:10.825Z,41.78
2023-04-15T22:27:38.172Z,40.95
2023-04-15T22:30:05.648Z,40.60
2023-04-15T22:32:32.838Z,39.92
2023-04-15T22:35:00.169Z,38.35
2023-04-15T22:37:30.448Z,41.45
2023-04-15T22:39:57.880Z,42.23
2023-04-15T22:42:25.039Z,43.50
2023-04-15T22:44:52.130Z,44.30
2023-04-15T22:47:19.416Z,41.25
2023-04-15T22:49:46.592Z,44.47
2023-04-15T22:52:23.418Z,47.25
2023-04-15T22:54:56.958Z,47.17
2023-04-15T22:57:24.117Z,46.65
2023-04-15T22:59:51.360Z,48.35
2023-04-15T23:02:18.602Z,53.70
2023-04-15T23:04:45.961Z,52.58
2023-04-15T23:07:13.116Z,50.95
2023-04-15T23:09:40.570Z,52.65
2023-04-15T23:12:07.730Z,50.22
2023-04-15T23:14:34.835Z,59.72
2023-04-15T23:17:01.947Z,58.28
2023-04-15T23:19:29.084Z,56.95
2023-04-15T23:21:56.195Z,55.28
2023-04-15T23:24:23.371Z,57.40
2023-04-15T23:26:50.526Z,58.83
2023-04-15T23:29:17.604Z,57.55
2023-04-15T23:31:44.787Z,60.85
2023-04-15T23:34:11.909Z,55.40
2023-04-15T23:36:39.021Z,57.25
2023-04-15T23:39:06.160Z,59.55
2023-04-15T23:41:33.265Z,51.08
2023-04-15T23:44:00.336Z,57.50
2023-04-15T23:46:27.631Z,59.22
2023-04-15T23:48:54.831Z,56.13
2023-04-15T23:51:21.895Z,56.72
2023-04-15T23:53:50.072Z,57.83
2023-04-15T23:56:17.167Z,56.92
2023-04-15T23:58:44.334Z,54.95
